createdAt,value
2023-02-26T00:00:00.000Z,9.95
2023-02-26T00:15:00.000Z,7.99
2023-02-26T00:30:00.000Z,8.07
2023-02-26T00:45:00.000Z,7.2
2023-02-26T01:00:00.000Z,8.94
2023-02-26T01:15:00.000Z,10
2023-02-26T01:30:00.000Z,9.45
2023-02-26T01:45:00.000Z,10.38
2023-02-26T02:00:00.000Z,8.75
2023-02-26T02:15:00.000Z,9.29
2023-02-26T02:30:00.000Z,9.91
2023-02-26T02:45:00.000Z,9.98
2023-02-26T03:00:00.000Z,10.61
2023-02-26T03:15:00.000Z,10.25
2023-02-26T03:30:00.000Z,10.95
2023-02-26T03:45:00.000Z,10.82
2023-02-26T04:00:00.000Z,10.8
2023-02-26T04:15:00.000Z,10.39
2023-02-26T04:30:00.000Z,10.86
2023-02-26T04:45:00.000Z,10.01
2023-02-26T05:00:00.000Z,9.73
2023-02-26T05:15:00.000Z,10.29
2023-02-26T05:30:00.000Z,10.73
2023-02-26T05:45:00.000Z,10.36
2023-02-26T06:00:00.000Z,10.14
2023-02-26T06:15:00.000Z,10.25
2023-02-26T06:30:00.000Z,10.56
2023-02-26T06:45:00.000Z,11.61
2023-02-26T07:00:00.000Z,10.59
2023-02-26T07:15:00.000Z,11.61
2023-02-26T07:30:00.000Z,13.8
2023-02-26T07:45:00.000Z,12.01
2023-02-26T08:00:00.000Z,12.45
2023-02-26T08:15:00.000Z,16.8
2023-02-26T08:30:00.000Z,14.84
2023-02-26T08:45:00.000Z,15.93
2023-02-26T09:00:00.000Z,14.44
2023-02-26T09:15:00.000Z,14.22
2023-02-26T09:30:00.000Z,15.35
2023-02-26T09:45:00.000Z,11.79
2023-02-26T10:00:00.000Z,22.12
2023-02-26T10:15:00.000Z,21.71
2023-02-26T10:30:00.000Z,12.52
2023-02-26T10:45:00.000Z,8.94
2023-02-26T11:00:00.000Z,7.33
2023-02-26T11:15:00.000Z,9.9
2023-02-26T11:30:00.000Z,9.44
2023-02-26T11:45:00.000Z,10.43
2023-02-26T12:00:00.000Z,13.19
2023-02-26T12:15:00.000Z,8.93
2023-02-26T12:30:00.000Z,9.93
2023-02-26T12:45:00.000Z,11.86
2023-02-26T13:00:00.000Z,9.97
2023-02-26T13:15:00.000Z,10.01
2023-02-26T13:30:00.000Z,11.24
2023-02-26T13:45:00.000Z,7.53
2023-02-26T14:00:00.000Z,5.6
2023-02-26T14:15:00.000Z,5.83
2023-02-26T14:30:00.000Z,7.02
2023-02-26T14:45:00.000Z,7.11
2023-02-26T15:00:00.000Z,7.58
2023-02-26T15:15:00.000Z,12.59
2023-02-26T15:30:00.000Z,11.8
2023-02-26T15:45:00.000Z,13.12
2023-02-26T16:00:00.000Z,9.05
2023-02-26T16:15:00.000Z,8.36
2023-02-26T16:30:00.000Z,10.7
2023-02-26T16:45:00.000Z,9.65
2023-02-26T17:00:00.000Z,12.67
2023-02-26T17:15:00.000Z,14.84
2023-02-26T17:30:00.000Z,19.16
2023-02-26T17:45:00.000Z,16.4
2023-02-26T18:00:00.000Z,14.08
2023-02-26T18:15:00.000Z,10.98
2023-02-26T18:30:00.000Z,19.3
2023-02-26T18:45:00.000Z,16.19
2023-02-26T19:00:00.000Z,16.16
2023-02-26T19:15:00.000Z,13.73
2023-02-26T19:30:00.000Z,11.15
2023-02-26T19:45:00.000Z,11.36
2023-02-26T20:00:00.000Z,10.31
2023-02-26T20:15:00.000Z,10.8
2023-02-26T20:30:00.000Z,12.84
2023-02-26T20:45:00.000Z,12.93
2023-02-26T21:00:00.000Z,12.43
2023-02-26T21:15:00.000Z,12.34
2023-02-26T21:30:00.000Z,12.17
2023-02-26T21:45:00.000Z,12.96
2023-02-26T22:00:00.000Z,10.65
2023-02-26T22:15:00.000Z,10.51
2023-02-26T22:30:00.000Z,9.85
2023-02-26T22:45:00.000Z,10.15
2023-02-26T23:00:00.000Z,9.96
2023-02-26T23:15:00.000Z,9.37
2023-02-26T23:30:00.000Z,9.87
2023-02-26T23:45:00.000Z,10.2
